Time;durP1;ratioP1;P1;durP2;ratioP2;P2;SDS_P1;SDS_P2;PMS_P1;PMS_P2;Temp;Humidity;BMP_temperature;BMP_pressure;BME280_temperature;BME280_humidity;BME280_pressure;Samples;Min_cycle;Max_cycle;Signal;HPM_P1;HPM_P2
2022/07/07 00:00:07;;;;;;;;;;;18.60;99.90;;;;;;5048102;28;19932;-70
2022/07/07 00:02:33;;;;;;;;;;;18.60;99.90;;;;;;5032983;28;20011;-70
2022/07/07 00:05:00;;;;;;;;;;;18.60;99.90;;;;;;5048197;28;19972;-70
2022/07/07 00:07:27;;;;;;;;;;;18.60;99.90;;;;;;5048019;28;19991;-70
2022/07/07 00:09:55;;;;;;;;;;;18.60;99.90;;;;;;5047717;28;19925;-70
2022/07/07 00:12:22;;;;;;;;;;;18.70;99.90;;;;;;5048295;28;19951;-71
2022/07/07 00:14:49;;;;;;;;;;;18.60;99.90;;;;;;5047980;28;20451;-70
2022/07/07 00:17:16;;;;;;;;;;;18.60;99.90;;;;;;5048045;28;20396;-71
2022/07/07 00:19:43;;;;;;;;;;;18.60;99.90;;;;;;5047726;28;20324;-71
2022/07/07 00:22:09;;;;;;;;;;;18.60;99.90;;;;;;5047777;28;19928;-71
2022/07/07 00:24:36;;;;;;;;;;;18.70;99.90;;;;;;5047707;28;19929;-71
2022/07/07 00:27:05;;;;;;;;;;;18.70;99.90;;;;;;5047831;28;20290;-71
2022/07/07 00:29:31;;;;;;;;;;;18.60;99.90;;;;;;5047808;28;19933;-70
2022/07/07 00:31:58;;;;;;;;;;;18.60;99.90;;;;;;5047548;28;19932;-71
2022/07/07 00:34:25;;;;;;;;;;;18.60;99.90;;;;;;5047348;28;19925;-70
2022/07/07 00:36:52;;;;;;;;;;;18.60;99.90;;;;;;5047702;28;19964;-71
2022/07/07 00:39:18;;;;;;;;;;;18.50;99.90;;;;;;5047765;28;20344;-70
2022/07/07 00:41:45;;;;;;;;;;;18.50;99.90;;;;;;5047767;28;19929;-70
2022/07/07 00:44:14;;;;;;;;;;;18.50;99.90;;;;;;5047618;28;19926;-70
2022/07/07 00:46:43;;;;;;;;;;;18.40;99.90;;;;;;5047683;28;19932;-71
2022/07/07 00:49:10;;;;;;;;;;;18.40;99.90;;;;;;5047334;28;19929;-70
2022/07/07 00:51:37;;;;;;;;;;;18.50;99.90;;;;;;5047511;28;19925;-71
2022/07/07 00:54:04;;;;;;;;;;;18.40;99.90;;;;;;5047526;28;19979;-70
2022/07/07 00:56:31;;;;;;;;;;;18.30;99.90;;;;;;5047507;28;19925;-71
2022/07/07 00:59:02;;;;;;;;;;;18.20;99.90;;;;;;5047652;28;19929;-70
2022/07/07 01:01:30;;;;;;;;;;;18.20;99.90;;;;;;5047474;28;19945;-70
2022/07/07 01:03:58;;;;;;;;;;;18.20;99.90;;;;;;5047450;28;20325;-70
2022/07/07 01:06:25;;;;;;;;;;;18.20;99.90;;;;;;5047149;28;19991;-70
2022/07/07 01:08:52;;;;;;;;;;;18.20;99.90;;;;;;5047344;28;19925;-70
2022/07/07 01:11:19;;;;;;;;;;;18.10;99.90;;;;;;5047506;28;19933;-71
2022/07/07 01:13:46;;;;;;;;;;;18.20;99.90;;;;;;5047282;28;19925;-71
2022/07/07 01:16:12;;;;;;;;;;;18.20;99.90;;;;;;5047398;28;19929;-70
2022/07/07 01:18:41;;;;;;;;;;;18.10;99.90;;;;;;5047403;28;19990;-71
2022/07/07 01:21:10;;;;;;;;;;;18.10;99.90;;;;;;5047048;28;19925;-71
2022/07/07 01:23:38;;;;;;;;;;;18.10;99.90;;;;;;5047158;28;19925;-70
2022/07/07 01:26:05;;;;;;;;;;;18.10;99.90;;;;;;5047160;28;19925;-70
2022/07/07 01:28:33;;;;;;;;;;;18.10;99.90;;;;;;5047288;28;19929;-71
2022/07/07 01:31:00;;;;;;;;;;;18.10;99.90;;;;;;5046939;28;20029;-71
2022/07/07 01:33:27;;;;;;;;;;;18.20;99.90;;;;;;5047058;28;19929;-70
2022/07/07 01:35:53;;;;;;;;;;;18.20;99.90;;;;;;5047081;28;19975;-70
2022/07/07 01:38:20;;;;;;;;;;;18.20;99.90;;;;;;5047091;28;19929;-70
2022/07/07 01:40:48;;;;;;;;;;;18.20;99.90;;;;;;5046810;28;20381;-71
2022/07/07 01:43:15;;;;;;;;;;;18.20;99.90;;;;;;5047024;28;19983;-71
2022/07/07 01:45:42;;;;;;;;;;;18.20;99.90;;;;;;5047313;28;20400;-71
2022/07/07 01:48:09;;;;;;;;;;;18.20;99.90;;;;;;5050865;28;19932;-70
2022/07/07 01:50:35;;;;;;;;;;;18.20;99.90;;;;;;5050385;28;19928;-71
2022/07/07 01:53:02;;;;;;;;;;;18.20;99.90;;;;;;5050210;28;19925;-70
2022/07/07 01:55:29;;;;;;;;;;;18.20;99.90;;;;;;5071247;22;19955;-66
2022/07/07 01:57:57;;;;;;;;;;;18.10;99.90;;;;;;5075093;28;20355;-66
2022/07/07 02:00:24;;;;;;;;;;;18.10;99.90;;;;;;5056746;28;19924;-67
2022/07/07 02:02:50;;;;;;;;;;;18.10;99.90;;;;;;5056943;28;20449;-67
2022/07/07 02:05:17;;;;;;;;;;;18.10;99.90;;;;;;5057058;28;20013;-67
2022/07/07 02:07:45;;;;;;;;;;;18.10;99.90;;;;;;5056840;28;20029;-67
2022/07/07 02:10:12;;;;;;;;;;;18.20;99.90;;;;;;5056717;28;19930;-68
2022/07/07 02:12:38;;;;;;;;;;;18.10;99.90;;;;;;5056780;28;20346;-67
2022/07/07 02:15:07;;;;;;;;;;;18.20;99.90;;;;;;5056681;28;19951;-67
2022/07/07 02:17:34;;;;;;;;;;;18.20;99.90;;;;;;5056892;28;19928;-67
2022/07/07 02:20:01;;;;;;;;;;;18.30;99.90;;;;;;5056776;28;19924;-67
2022/07/07 02:22:28;;;;;;;;;;;18.30;99.90;;;;;;5056795;28;19931;-67
2022/07/07 02:24:55;;;;;;;;;;;18.30;99.90;;;;;;5056580;28;19971;-66
2022/07/07 02:27:22;;;;;;;;;;;18.30;99.90;;;;;;5056890;28;19924;-67
2022/07/07 02:29:49;;;;;;;;;;;18.30;99.90;;;;;;5056668;28;19928;-67
2022/07/07 02:32:17;;;;;;;;;;;18.30;99.90;;;;;;5056756;28;19970;-67
2022/07/07 02:34:44;;;;;;;;;;;18.30;99.90;;;;;;5056536;28;20346;-67
2022/07/07 02:37:11;;;;;;;;;;;18.30;99.90;;;;;;5056565;28;19974;-67
2022/07/07 02:39:38;;;;;;;;;;;18.30;99.90;;;;;;5056399;28;20268;-67
2022/07/07 02:42:05;;;;;;;;;;;18.30;99.90;;;;;;5056652;28;19931;-68
2022/07/07 02:44:32;;;;;;;;;;;18.20;99.90;;;;;;5056514;28;19925;-67
2022/07/07 02:46:59;;;;;;;;;;;18.20;99.90;;;;;;5056222;28;19924;-67
2022/07/07 02:49:27;;;;;;;;;;;18.20;99.90;;;;;;5056264;28;19974;-67
2022/07/07 02:51:53;;;;;;;;;;;18.20;99.90;;;;;;5056377;28;19933;-67
2022/07/07 02:54:20;;;;;;;;;;;18.20;99.90;;;;;;5056418;28;19925;-67
2022/07/07 02:56:47;;;;;;;;;;;18.20;99.90;;;;;;5055930;28;20362;-67
2022/07/07 02:59:14;;;;;;;;;;;18.20;99.90;;;;;;5056007;28;19928;-68
2022/07/07 03:01:40;;;;;;;;;;;18.20;99.90;;;;;;5056049;28;19986;-67
2022/07/07 03:04:07;;;;;;;;;;;18.30;99.90;;;;;;5055911;28;19928;-68
2022/07/07 03:06:36;;;;;;;;;;;18.20;99.90;;;;;;5055578;28;19925;-67
2022/07/07 03:09:03;;;;;;;;;;;18.20;99.90;;;;;;5055868;28;19924;-67
2022/07/07 03:11:29;;;;;;;;;;;18.20;99.90;;;;;;5056020;28;19924;-67
2022/07/07 03:13:56;;;;;;;;;;;18.20;99.90;;;;;;5055813;28;19924;-67
2022/07/07 03:16:23;;;;;;;;;;;18.20;99.90;;;;;;5055520;28;19924;-68
2022/07/07 03:18:50;;;;;;;;;;;18.20;99.90;;;;;;5055537;28;19925;-65
2022/07/07 03:21:16;;;;;;;;;;;18.20;99.90;;;;;;5055673;28;19995;-67
2022/07/07 03:23:45;;;;;;;;;;;18.20;99.90;;;;;;5055744;28;20015;-67
2022/07/07 03:26:11;;;;;;;;;;;18.10;99.90;;;;;;5055401;28;19924;-67
2022/07/07 03:28:38;;;;;;;;;;;18.10;99.90;;;;;;5055428;28;20276;-67
2022/07/07 03:31:05;;;;;;;;;;;18.10;99.90;;;;;;5055223;28;19931;-67
2022/07/07 03:33:31;;;;;;;;;;;18.20;99.90;;;;;;5055403;28;19924;-68
2022/07/07 03:35:58;;;;;;;;;;;18.10;99.90;;;;;;5055588;28;19982;-67
2022/07/07 03:38:25;;;;;;;;;;;18.10;99.90;;;;;;5055356;28;20342;-67
2022/07/07 03:40:53;;;;;;;;;;;18.10;99.90;;;;;;5055009;28;19924;-67
2022/07/07 03:43:20;;;;;;;;;;;18.10;99.90;;;;;;5055192;28;19970;-67
2022/07/07 03:45:47;;;;;;;;;;;18.20;99.90;;;;;;5055014;28;19964;-67
2022/07/07 03:48:14;;;;;;;;;;;18.10;99.90;;;;;;5055209;28;19924;-67
2022/07/07 03:50:41;;;;;;;;;;;18.10;99.90;;;;;;5055024;28;19932;-67
2022/07/07 03:53:08;;;;;;;;;;;18.10;99.90;;;;;;5055128;28;19929;-67
2022/07/07 03:55:35;;;;;;;;;;;18.10;99.90;;;;;;5054922;28;19932;-68
2022/07/07 03:58:03;;;;;;;;;;;18.00;99.90;;;;;;5054911;28;19928;-67
2022/07/07 04:00:30;;;;;;;;;;;17.90;99.90;;;;;;5054607;28;19955;-67
2022/07/07 04:02:56;;;;;;;;;;;17.90;99.90;;;;;;5054730;28;20277;-67
2022/07/07 04:05:23;;;;;;;;;;;17.80;99.90;;;;;;5054884;28;20345;-68
2022/07/07 04:07:50;;;;;;;;;;;17.90;99.90;;;;;;5054601;28;19928;-67
2022/07/07 04:10:17;;;;;;;;;;;17.80;99.90;;;;;;5054443;28;19924;-67
2022/07/07 04:12:43;;;;;;;;;;;17.70;99.90;;;;;;5054881;28;19924;-66
2022/07/07 04:15:12;;;;;;;;;;;17.70;99.90;;;;;;5054833;28;19924;-68
2022/07/07 04:17:39;;;;;;;;;;;17.70;99.90;;;;;;5054549;28;19928;-67
2022/07/07 04:20:06;;;;;;;;;;;17.80;99.90;;;;;;5054517;28;19924;-67
2022/07/07 04:22:33;;;;;;;;;;;17.70;99.90;;;;;;5054495;28;19931;-67
2022/07/07 04:24:59;;;;;;;;;;;17.70;99.90;;;;;;5054660;28;19924;-65
2022/07/07 04:27:26;;;;;;;;;;;17.80;99.90;;;;;;5054717;28;19924;-67
2022/07/07 04:29:53;;;;;;;;;;;17.70;99.90;;;;;;5054448;28;19924;-67
2022/07/07 04:32:21;;;;;;;;;;;17.70;99.90;;;;;;5054415;28;19972;-65
2022/07/07 04:34:48;;;;;;;;;;;17.60;99.90;;;;;;5054338;28;20396;-67
2022/07/07 04:37:15;;;;;;;;;;;17.70;99.90;;;;;;5054574;28;19928;-67
2022/07/07 04:39:41;;;;;;;;;;;17.70;99.90;;;;;;5054233;28;20358;-68
2022/07/07 04:42:08;;;;;;;;;;;17.80;99.90;;;;;;5054454;28;19924;-68
2022/07/07 04:44:35;;;;;;;;;;;17.80;99.90;;;;;;5054126;28;19986;-67
2022/07/07 04:47:02;;;;;;;;;;;17.80;99.90;;;;;;5054257;28;19932;-67
2022/07/07 04:49:31;;;;;;;;;;;17.70;99.90;;;;;;5053971;28;20443;-67
2022/07/07 04:51:58;;;;;;;;;;;17.80;99.90;;;;;;5054296;28;19932;-67
2022/07/07 04:54:24;;;;;;;;;;;17.80;99.90;;;;;;5054265;28;19931;-67
2022/07/07 04:56:51;;;;;;;;;;;17.80;99.90;;;;;;5054068;28;19939;-67
2022/07/07 04:59:18;;;;;;;;;;;17.80;99.90;;;;;;5054026;28;19924;-67
2022/07/07 05:01:45;;;;;;;;;;;17.90;99.90;;;;;;5051122;28;19929;-66
2022/07/07 05:04:11;;;;;;;;;;;17.90;99.90;;;;;;5044759;28;20437;-66
2022/07/07 05:06:40;;;;;;;;;;;17.90;99.90;;;;;;5033818;28;19947;-67
2022/07/07 05:09:06;;;;;;;;;;;17.90;99.90;;;;;;5033863;28;19932;-66
2022/07/07 05:11:33;;;;;;;;;;;17.90;99.90;;;;;;5044546;28;19970;-67
2022/07/07 05:14:00;;;;;;;;;;;18.00;99.90;;;;;;5070436;28;19925;-67
2022/07/07 05:16:27;;;;;;;;;;;18.00;99.90;;;;;;5070561;28;19924;-67
2022/07/07 05:18:53;;;;;;;;;;;17.90;99.90;;;;;;5069932;28;19928;-67
2022/07/07 05:21:20;;;;;;;;;;;17.90;99.90;;;;;;5035439;28;19929;-67
2022/07/07 05:23:48;;;;;;;;;;;18.00;99.90;;;;;;5037666;28;19943;-67
2022/07/07 05:26:15;;;;;;;;;;;18.00;99.90;;;;;;5037725;28;20364;-68
2022/07/07 05:28:42;;;;;;;;;;;18.00;99.90;;;;;;5037728;28;20386;-67
2022/07/07 05:31:10;;;;;;;;;;;18.00;99.90;;;;;;5037969;28;19924;-67
2022/07/07 05:33:36;;;;;;;;;;;17.90;99.90;;;;;;5037871;28;19931;-67
2022/07/07 05:36:03;;;;;;;;;;;17.90;99.90;;;;;;5038817;28;19928;-67
2022/07/07 05:38:30;;;;;;;;;;;17.80;99.90;;;;;;5057466;28;20392;-67
2022/07/07 05:40:58;;;;;;;;;;;17.80;99.90;;;;;;5057254;28;20489;-67
2022/07/07 05:43:25;;;;;;;;;;;17.80;99.90;;;;;;5057521;28;19947;-67
2022/07/07 05:45:52;;;;;;;;;;;17.70;99.90;;;;;;5057263;28;19936;-67
2022/07/07 05:48:19;;;;;;;;;;;17.50;99.90;;;;;;5074127;28;19925;-67
2022/07/07 05:50:45;;;;;;;;;;;17.50;99.90;;;;;;5073647;28;19929;-67
2022/07/07 05:53:12;;;;;;;;;;;17.40;99.90;;;;;;5073807;28;19932;-66
2022/07/07 05:55:39;;;;;;;;;;;17.10;99.90;;;;;;5073584;28;19924;-68
2022/07/07 05:58:08;;;;;;;;;;;16.90;99.90;;;;;;5057293;28;19956;-66
2022/07/07 06:00:34;;;;;;;;;;;16.80;99.90;;;;;;5056858;28;20396;-66
2022/07/07 06:03:01;;;;;;;;;;;16.80;99.90;;;;;;5073560;28;20273;-66
2022/07/07 06:05:28;;;;;;;;;;;16.80;99.90;;;;;;5073758;28;19962;-67
2022/07/07 06:07:55;;;;;;;;;;;16.80;99.90;;;;;;5073082;28;19924;-66
2022/07/07 06:10:21;;;;;;;;;;;16.80;99.90;;;;;;5070432;28;20301;-67
2022/07/07 06:12:49;;;;;;;;;;;16.80;99.90;;;;;;5037126;28;19932;-68
2022/07/07 06:15:20;;;;;;;;;;;16.80;99.90;;;;;;5036936;28;19932;-67
2022/07/07 06:17:47;;;;;;;;;;;16.90;99.90;;;;;;5036901;28;20388;-67
2022/07/07 06:20:14;;;;;;;;;;;16.90;99.90;;;;;;5036511;28;20506;-68
2022/07/07 06:22:41;;;;;;;;;;;17.10;99.90;;;;;;5036733;28;19933;-68
2022/07/07 06:25:08;;;;;;;;;;;17.20;99.90;;;;;;5037066;28;20020;-67
2022/07/07 06:27:35;;;;;;;;;;;17.20;99.90;;;;;;5036670;28;19967;-67
2022/07/07 06:30:02;;;;;;;;;;;17.20;99.90;;;;;;5036541;28;19925;-67
2022/07/07 06:32:30;;;;;;;;;;;17.40;99.90;;;;;;5036156;28;19924;-68
2022/07/07 06:34:57;;;;;;;;;;;17.50;99.90;;;;;;5036525;28;19924;-68
2022/07/07 06:37:24;;;;;;;;;;;17.50;99.90;;;;;;5036665;28;19931;-67
2022/07/07 06:39:50;;;;;;;;;;;17.40;99.90;;;;;;5036354;28;20372;-67
2022/07/07 06:42:17;;;;;;;;;;;17.40;99.90;;;;;;5036623;28;20015;-67
2022/07/07 06:44:49;;;;;;;;;;;17.30;99.90;;;;;;5036341;28;19948;-67
2022/07/07 06:47:16;;;;;;;;;;;17.10;99.90;;;;;;5036166;28;19929;-67
2022/07/07 06:49:44;;;;;;;;;;;17.00;99.90;;;;;;5035995;28;19928;-67
2022/07/07 06:52:12;;;;;;;;;;;17.00;99.90;;;;;;5036506;28;19925;-67
2022/07/07 06:54:39;;;;;;;;;;;16.90;99.90;;;;;;5036285;28;19968;-67
2022/07/07 06:57:06;;;;;;;;;;;17.00;99.90;;;;;;5036003;28;20304;-67
2022/07/07 06:59:33;;;;;;;;;;;17.00;99.90;;;;;;5035819;28;19956;-67
2022/07/07 07:02:02;;;;;;;;;;;16.90;99.90;;;;;;5019147;28;21837;-67
2022/07/07 07:04:29;;;;;;;;;;;16.80;99.90;;;;;;5036229;28;19925;-68
2022/07/07 07:06:57;;;;;;;;;;;16.90;99.90;;;;;;5035676;28;19979;-67
2022/07/07 07:09:24;;;;;;;;;;;16.90;99.90;;;;;;5035795;28;19924;-67
2022/07/07 07:11:51;;;;;;;;;;;17.00;99.90;;;;;;5051049;28;19931;-67
2022/07/07 07:14:18;;;;;;;;;;;17.20;99.90;;;;;;5055641;28;19924;-67
2022/07/07 07:16:45;;;;;;;;;;;17.40;99.90;;;;;;5072631;28;19928;-67
2022/07/07 07:19:12;;;;;;;;;;;17.50;99.90;;;;;;5072191;28;19947;-68
2022/07/07 07:21:38;;;;;;;;;;;17.70;99.90;;;;;;5072446;28;19924;-65
2022/07/07 07:24:07;;;;;;;;;;;17.60;99.90;;;;;;5055548;28;20390;-67
2022/07/07 07:26:34;;;;;;;;;;;17.50;99.90;;;;;;5055352;28;19928;-67
2022/07/07 07:29:01;;;;;;;;;;;17.70;99.90;;;;;;5055551;28;19978;-66
2022/07/07 07:31:27;;;;;;;;;;;17.70;99.90;;;;;;5072197;28;20307;-67
2022/07/07 07:33:54;;;;;;;;;;;17.70;99.90;;;;;;5071860;28;20346;-66
2022/07/07 07:36:21;;;;;;;;;;;17.90;99.90;;;;;;5072026;28;19931;-67
2022/07/07 07:38:50;;;;;;;;;;;18.10;99.90;;;;;;5071820;28;19928;-65
2022/07/07 07:41:19;;;;;;;;;;;18.10;99.90;;;;;;5071828;28;19925;-67
2022/07/07 07:43:46;;;;;;;;;;;17.90;99.90;;;;;;5054471;28;19924;-67
2022/07/07 07:46:13;;;;;;;;;;;17.90;99.90;;;;;;5055264;28;19974;-67
2022/07/07 07:48:39;;;;;;;;;;;17.90;99.90;;;;;;5055369;28;19932;-67
2022/07/07 07:51:06;;;;;;;;;;;17.90;99.90;;;;;;5071504;28;20405;-67
2022/07/07 07:53:33;;;;;;;;;;;17.80;99.90;;;;;;5071669;28;19932;-67
2022/07/07 07:56:00;;;;;;;;;;;17.90;99.90;;;;;;5080277;22;19929;-68
2022/07/07 07:58:28;;;;;;;;;;;17.80;99.90;;;;;;5033037;28;20032;-69
2022/07/07 08:00:54;;;;;;;;;;;17.90;99.90;;;;;;5030908;28;20397;-68
2022/07/07 08:03:21;;;;;;;;;;;17.80;99.90;;;;;;5048305;28;19929;-68
2022/07/07 08:05:48;;;;;;;;;;;18.00;99.90;;;;;;5031207;28;19925;-68
2022/07/07 08:08:15;;;;;;;;;;;18.40;99.90;;;;;;5031693;28;19931;-69
2022/07/07 08:10:42;;;;;;;;;;;18.50;99.90;;;;;;5031320;28;19969;-69
2022/07/07 08:13:09;;;;;;;;;;;18.40;99.90;;;;;;5031370;28;20011;-69
2022/07/07 08:15:37;;;;;;;;;;;18.20;99.90;;;;;;5031439;28;19925;-69
2022/07/07 08:18:04;;;;;;;;;;;18.20;99.90;;;;;;5031253;28;19979;-70
2022/07/07 08:20:31;;;;;;;;;;;18.20;99.90;;;;;;5031072;28;19956;-70
2022/07/07 08:22:57;;;;;;;;;;;18.20;99.90;;;;;;5031446;28;19951;-70
2022/07/07 08:25:24;;;;;;;;;;;18.00;99.90;;;;;;5031264;28;19925;-69
2022/07/07 08:27:51;;;;;;;;;;;17.90;99.90;;;;;;5031149;28;19933;-70
2022/07/07 08:30:18;;;;;;;;;;;18.00;99.90;;;;;;5031230;28;20393;-69
2022/07/07 08:32:46;;;;;;;;;;;17.90;99.90;;;;;;5030919;28;20466;-69
2022/07/07 08:35:13;;;;;;;;;;;18.00;99.90;;;;;;5031025;28;19925;-69
2022/07/07 08:37:40;;;;;;;;;;;17.80;99.90;;;;;;5030895;28;19925;-70
2022/07/07 08:40:07;;;;;;;;;;;17.80;99.90;;;;;;5031061;28;19925;-69
2022/07/07 08:42:34;;;;;;;;;;;18.00;99.90;;;;;;5031212;28;19929;-69
2022/07/07 08:45:00;;;;;;;;;;;18.20;99.90;;;;;;5030950;28;19929;-70
2022/07/07 08:47:27;;;;;;;;;;;18.30;99.90;;;;;;5030802;28;19925;-70
2022/07/07 08:49:56;;;;;;;;;;;18.60;99.90;;;;;;5030941;28;19925;-70
2022/07/07 08:52:22;;;;;;;;;;;18.60;99.90;;;;;;5030873;28;19925;-70
2022/07/07 08:54:49;;;;;;;;;;;18.70;99.90;;;;;;5031228;28;19929;-70
2022/07/07 08:57:16;;;;;;;;;;;18.60;99.90;;;;;;5034823;28;19925;-70
2022/07/07 08:59:43;;;;;;;;;;;18.40;99.90;;;;;;5034738;28;19925;-70
2022/07/07 09:02:10;;;;;;;;;;;18.60;99.90;;;;;;5034927;28;19975;-69
2022/07/07 09:04:37;;;;;;;;;;;18.50;99.90;;;;;;5035180;28;20023;-70
2022/07/07 09:07:06;;;;;;;;;;;18.50;99.90;;;;;;5034630;28;19925;-70
2022/07/07 09:09:43;;;;;;;;;;;18.50;99.90;;;;;;5034504;28;19925;-68
2022/07/07 09:12:10;;;;;;;;;;;18.50;99.90;;;;;;5017152;28;20355;-69
2022/07/07 09:14:38;;;;;;;;;;;18.10;99.90;;;;;;5015370;28;19925;-70
2022/07/07 09:17:14;;;;;;;;;;;18.30;99.90;;;;;;5015210;28;19976;-70
2022/07/07 09:19:41;;;;;;;;;;;18.40;99.90;;;;;;5014666;28;19929;-70
2022/07/07 09:22:09;;;;;;;;;;;18.30;99.90;;;;;;5014745;28;19944;-70
2022/07/07 09:24:52;;;;;;;;;;;18.40;99.90;;;;;;5014748;28;19929;-70
2022/07/07 09:27:18;;;;;;;;;;;18.80;99.90;;;;;;5014782;28;19930;-70
2022/07/07 09:29:45;;;;;;;;;;;19.20;99.90;;;;;;5014658;28;19988;-70
2022/07/07 09:32:12;;;;;;;;;;;19.40;99.90;;;;;;5014860;28;19930;-70
2022/07/07 09:34:39;;;;;;;;;;;19.70;99.90;;;;;;5014560;28;20045;-70
2022/07/07 09:39:54;;;;;;;;;;;19.50;99.90;;;;;;5014316;28;19921;-70
2022/07/07 09:42:22;;;;;;;;;;;19.50;99.90;;;;;;5014936;28;19925;-69
2022/07/07 09:44:50;;;;;;;;;;;19.40;99.90;;;;;;5014349;28;19926;-70
2022/07/07 09:47:16;;;;;;;;;;;19.60;99.90;;;;;;5014213;28;19930;-70
2022/07/07 09:49:44;;;;;;;;;;;19.90;99.90;;;;;;5014058;28;19929;-70
2022/07/07 09:52:17;;;;;;;;;;;20.20;99.90;;;;;;5014623;28;20404;-70
2022/07/07 09:54:46;;;;;;;;;;;20.20;99.90;;;;;;5014396;28;19980;-70
2022/07/07 09:57:14;;;;;;;;;;;20.20;99.90;;;;;;5013997;28;19948;-70
2022/07/07 09:59:42;;;;;;;;;;;20.00;99.90;;;;;;5014025;28;19929;-70
2022/07/07 10:02:13;;;;;;;;;;;19.80;99.90;;;;;;5013999;28;19930;-70
2022/07/07 10:04:41;;;;;;;;;;;19.60;99.90;;;;;;5014281;28;19929;-70
2022/07/07 10:07:10;;;;;;;;;;;19.20;99.90;;;;;;5012740;28;20357;-70
2022/07/07 10:09:39;;;;;;;;;;;19.10;99.90;;;;;;5013674;28;19953;-70
2022/07/07 10:12:06;;;;;;;;;;;19.00;99.90;;;;;;5030783;28;19929;-70
2022/07/07 10:14:35;;;;;;;;;;;18.90;99.90;;;;;;5033960;28;19933;-70
2022/07/07 10:17:03;;;;;;;;;;;18.60;99.90;;;;;;5033608;28;19933;-70
2022/07/07 10:19:29;;;;;;;;;;;18.50;99.90;;;;;;5033304;28;19926;-70
2022/07/07 10:21:57;;;;;;;;;;;18.30;99.90;;;;;;5033572;28;19932;-70
2022/07/07 10:24:26;;;;;;;;;;;18.40;99.90;;;;;;5033323;28;19987;-70
2022/07/07 10:26:54;;;;;;;;;;;18.50;99.90;;;;;;5033371;28;20388;-70
2022/07/07 10:29:35;;;;;;;;;;;18.70;99.90;;;;;;5033345;28;19925;-70
2022/07/07 10:32:04;;;;;;;;;;;18.90;99.90;;;;;;5033747;28;19936;-70
2022/07/07 10:34:33;;;;;;;;;;;18.90;99.90;;;;;;5033078;28;19929;-70
2022/07/07 10:37:01;;;;;;;;;;;19.10;99.90;;;;;;5033269;28;19924;-70
2022/07/07 10:39:28;;;;;;;;;;;19.40;99.90;;;;;;5032758;28;19961;-70
2022/07/07 10:42:02;;;;;;;;;;;19.60;99.90;;;;;;5033411;28;19947;-70
2022/07/07 10:44:29;;;;;;;;;;;19.90;99.90;;;;;;5033174;28;19932;-70
2022/07/07 10:46:59;;;;;;;;;;;20.50;99.90;;;;;;5032969;28;19979;-70
2022/07/07 10:49:38;;;;;;;;;;;21.00;99.90;;;;;;5032390;28;20304;-70
2022/07/07 10:52:09;;;;;;;;;;;20.90;99.90;;;;;;5033116;28;19925;-70
2022/07/07 10:54:37;;;;;;;;;;;20.70;99.90;;;;;;5032945;28;19925;-70
2022/07/07 10:57:10;;;;;;;;;;;20.30;99.90;;;;;;5032480;28;20400;-70
2022/07/07 10:59:52;;;;;;;;;;;20.40;99.90;;;;;;5033573;28;19983;-70
2022/07/07 11:02:29;;;;;;;;;;;20.50;99.90;;;;;;5031907;28;19925;-70
2022/07/07 11:04:57;;;;;;;;;;;20.80;99.90;;;;;;5032694;28;19976;-67
2022/07/07 11:07:25;;;;;;;;;;;21.10;99.90;;;;;;5032104;28;19972;-70
2022/07/07 11:10:02;;;;;;;;;;;21.00;99.90;;;;;;5032213;28;20392;-70
2022/07/07 11:12:35;;;;;;;;;;;21.10;99.90;;;;;;5013137;28;19930;-70
2022/07/07 11:15:21;;;;;;;;;;;21.00;99.90;;;;;;5012861;28;19932;-68
2022/07/07 11:17:49;;;;;;;;;;;21.10;99.90;;;;;;5012611;28;20417;-70
2022/07/07 11:20:18;;;;;;;;;;;20.80;99.90;;;;;;5012347;28;19991;-68
2022/07/07 11:22:45;;;;;;;;;;;20.60;99.90;;;;;;5012976;28;19929;-70
2022/07/07 11:25:12;;;;;;;;;;;20.40;99.90;;;;;;5012537;28;19929;-70
2022/07/07 11:27:39;;;;;;;;;;;20.00;99.90;;;;;;5012552;28;20348;-67
2022/07/07 11:30:06;;;;;;;;;;;19.60;99.90;;;;;;5012098;28;19933;-70
2022/07/07 11:32:36;;;;;;;;;;;19.30;99.90;;;;;;5012432;28;19925;-70
2022/07/07 11:35:05;;;;;;;;;;;19.10;99.90;;;;;;5012301;28;19925;-69
2022/07/07 11:37:34;;;;;;;;;;;19.10;99.90;;;;;;5012185;28;20328;-70
2022/07/07 11:40:01;;;;;;;;;;;19.20;99.90;;;;;;5012002;28;19972;-70
2022/07/07 11:42:34;;;;;;;;;;;19.40;99.90;;;;;;5012328;28;20393;-70
2022/07/07 11:45:01;;;;;;;;;;;19.30;99.90;;;;;;5012201;28;19929;-70
2022/07/07 11:47:32;;;;;;;;;;;19.40;99.90;;;;;;5011814;28;20408;-70
2022/07/07 11:49:59;;;;;;;;;;;19.40;99.90;;;;;;5011824;28;19926;-70
2022/07/07 11:52:26;;;;;;;;;;;19.70;99.90;;;;;;5012189;28;19926;-68
2022/07/07 11:54:54;;;;;;;;;;;19.90;99.90;;;;;;5012149;28;19925;-70
2022/07/07 11:57:31;;;;;;;;;;;19.90;99.90;;;;;;5011731;28;19925;-70
2022/07/07 12:00:11;;;;;;;;;;;19.80;99.90;;;;;;5011600;28;19933;-70
2022/07/07 12:02:39;;;;;;;;;;;19.50;99.90;;;;;;5011889;28;19933;-70
2022/07/07 12:05:06;;;;;;;;;;;19.50;99.90;;;;;;5011706;28;20348;-70
2022/07/07 12:07:33;;;;;;;;;;;19.50;99.90;;;;;;5011464;28;19926;-70
2022/07/07 12:10:01;;;;;;;;;;;19.40;99.90;;;;;;5011440;28;19932;-70
2022/07/07 12:12:28;;;;;;;;;;;19.30;99.90;;;;;;5012158;28;19925;-70
2022/07/07 12:14:55;;;;;;;;;;;18.90;99.90;;;;;;5011935;28;19933;-70
2022/07/07 12:17:37;;;;;;;;;;;18.70;99.90;;;;;;5011777;28;19976;-70
2022/07/07 12:20:04;;;;;;;;;;;18.80;99.90;;;;;;5008096;28;19972;-67
2022/07/07 12:22:34;;;;;;;;;;;18.60;99.90;;;;;;5011599;28;20021;-70
2022/07/07 12:25:04;;;;;;;;;;;18.60;99.90;;;;;;5011629;28;19931;-70
2022/07/07 12:27:31;;;;;;;;;;;18.70;99.90;;;;;;5011899;28;19926;-70
2022/07/07 12:29:59;;;;;;;;;;;18.80;99.90;;;;;;5011076;28;19926;-70
2022/07/07 12:32:25;;;;;;;;;;;18.90;99.90;;;;;;5011506;28;20385;-71
2022/07/07 12:34:52;;;;;;;;;;;18.80;99.90;;;;;;5011536;28;19925;-69
2022/07/07 12:37:19;;;;;;;;;;;18.70;99.90;;;;;;5011448;28;19933;-70
2022/07/07 12:39:49;;;;;;;;;;;18.70;99.90;;;;;;5011349;28;19929;-69
2022/07/07 12:42:25;;;;;;;;;;;18.80;99.90;;;;;;5011931;28;19925;-69
2022/07/07 12:44:52;;;;;;;;;;;19.20;99.90;;;;;;5011331;28;19925;-68
2022/07/07 12:47:19;;;;;;;;;;;19.50;99.90;;;;;;5011247;28;19926;-70
2022/07/07 12:49:53;;;;;;;;;;;19.60;99.90;;;;;;5011099;28;19930;-70
2022/07/07 12:52:20;;;;;;;;;;;19.40;99.90;;;;;;5011225;28;19964;-71
2022/07/07 12:54:47;;;;;;;;;;;19.30;99.90;;;;;;5011152;28;19925;-70
2022/07/07 12:57:15;;;;;;;;;;;19.20;99.90;;;;;;5010979;28;20328;-68
2022/07/07 12:59:44;;;;;;;;;;;19.20;99.90;;;;;;5010987;28;19932;-70
2022/07/07 13:02:12;;;;;;;;;;;19.10;99.90;;;;;;5011044;28;20409;-70
2022/07/07 13:04:40;;;;;;;;;;;19.10;99.90;;;;;;5011195;28;19929;-70
2022/07/07 13:07:06;;;;;;;;;;;19.10;99.90;;;;;;5010751;28;20451;-71
2022/07/07 13:09:33;;;;;;;;;;;18.90;99.90;;;;;;5010589;28;20364;-68
2022/07/07 13:12:00;;;;;;;;;;;19.00;99.90;;;;;;5027134;28;19925;-70
2022/07/07 13:14:28;;;;;;;;;;;19.00;99.90;;;;;;5030559;28;20343;-70
2022/07/07 13:16:56;;;;;;;;;;;19.40;99.90;;;;;;5030955;28;19972;-68
2022/07/07 13:19:23;;;;;;;;;;;19.50;99.90;;;;;;5030314;28;19925;-70
2022/07/07 13:21:50;;;;;;;;;;;19.70;99.90;;;;;;5030671;28;19925;-70
2022/07/07 13:24:16;;;;;;;;;;;19.90;99.90;;;;;;5030731;28;19925;-70
2022/07/07 13:26:43;;;;;;;;;;;20.10;99.90;;;;;;5030372;28;19972;-70
2022/07/07 13:29:10;;;;;;;;;;;19.90;99.90;;;;;;5030443;28;19929;-70
2022/07/07 13:31:38;;;;;;;;;;;19.70;99.90;;;;;;5030614;28;19926;-70
2022/07/07 13:34:06;;;;;;;;;;;19.50;99.90;;;;;;5030474;28;19925;-70
2022/07/07 13:36:33;;;;;;;;;;;19.40;99.90;;;;;;5030658;28;19925;-70
2022/07/07 13:39:00;;;;;;;;;;;19.30;99.90;;;;;;5030214;28;19925;-70
2022/07/07 13:41:27;;;;;;;;;;;19.10;99.90;;;;;;5030671;28;19925;-70
2022/07/07 13:43:53;;;;;;;;;;;19.10;99.90;;;;;;5033860;28;19925;-70
2022/07/07 13:46:20;;;;;;;;;;;19.20;99.90;;;;;;5034486;28;19925;-69
2022/07/07 13:48:47;;;;;;;;;;;19.30;99.90;;;;;;5033819;28;19929;-68
2022/07/07 13:51:16;;;;;;;;;;;19.40;99.90;;;;;;5034396;28;19929;-70
2022/07/07 13:53:43;;;;;;;;;;;19.60;99.90;;;;;;5033884;28;20059;-69
2022/07/07 13:56:09;;;;;;;;;;;19.60;99.90;;;;;;5058020;22;20032;-67
2022/07/07 13:58:36;;;;;;;;;;;20.00;99.90;;;;;;5033882;28;20408;-67
2022/07/07 14:01:03;;;;;;;;;;;20.40;99.90;;;;;;5033604;28;20320;-67
2022/07/07 14:03:29;;;;;;;;;;;20.50;99.90;;;;;;5033801;28;20075;-65
2022/07/07 14:05:56;;;;;;;;;;;20.90;99.90;;;;;;5034568;28;19979;-68
2022/07/07 14:08:24;;;;;;;;;;;21.10;99.90;;;;;;5034771;28;20476;-67
2022/07/07 14:10:50;;;;;;;;;;;20.90;99.90;;;;;;5040107;28;19968;-67
2022/07/07 14:13:17;;;;;;;;;;;20.60;99.90;;;;;;5053652;28;19970;-67
2022/07/07 14:15:46;;;;;;;;;;;20.50;99.90;;;;;;5053476;28;19925;-67
2022/07/07 14:18:13;;;;;;;;;;;20.40;99.90;;;;;;5053436;28;19929;-68
2022/07/07 14:20:41;;;;;;;;;;;20.40;99.90;;;;;;5053262;28;19932;-67